sensor_id;sensor_type;location;lat;lon;timestamp;pressure;altitude;pressure_sealevel;temperature;humidity
49459;BME280;35354;51.296;16.924;2023-01-15T00:00:47;98553.47;;;6.87;79.30
49459;BME280;35354;51.296;16.924;2023-01-15T00:03:12;98547.22;;;6.91;79.05
49459;BME280;35354;51.296;16.924;2023-01-15T00:05:38;98540.28;;;6.92;78.71
49459;BME280;35354;51.296;16.924;2023-01-15T00:08:03;98521.63;;;6.85;78.61
49459;BME280;35354;51.296;16.924;2023-01-15T00:10:29;98521.25;;;6.93;78.74
49459;BME280;35354;51.296;16.924;2023-01-15T00:12:54;98527.13;;;6.96;78.24
49459;BME280;35354;51.296;16.924;2023-01-15T00:15:19;98505.84;;;6.90;78.59
49459;BME280;35354;51.296;16.924;2023-01-15T00:17:45;98517.69;;;6.95;78.71
49459;BME280;35354;51.296;16.924;2023-01-15T00:20:10;98515.22;;;6.92;78.62
49459;BME280;35354;51.296;16.924;2023-01-15T00:22:36;98509.22;;;6.92;78.17
49459;BME280;35354;51.296;16.924;2023-01-15T00:25:01;98520.94;;;6.99;78.26
49459;BME280;35354;51.296;16.924;2023-01-15T00:27:46;98508.22;;;6.94;78.86
49459;BME280;35354;51.296;16.924;2023-01-15T00:30:13;98516.53;;;7.01;78.40
49459;BME280;35354;51.296;16.924;2023-01-15T00:32:40;98523.28;;;7.04;77.85
49459;BME280;35354;51.296;16.924;2023-01-15T00:35:09;98501.91;;;7.00;77.94
49459;BME280;35354;51.296;16.924;2023-01-15T00:37:35;98512.53;;;7.11;77.70
49459;BME280;35354;51.296;16.924;2023-01-15T00:40:01;98511.81;;;7.09;77.96
49459;BME280;35354;51.296;16.924;2023-01-15T00:42:26;98489.63;;;7.04;77.45
49459;BME280;35354;51.296;16.924;2023-01-15T00:44:51;98501.28;;;7.12;77.66
49459;BME280;35354;51.296;16.924;2023-01-15T00:47:17;98486.88;;;7.07;77.79
49459;BME280;35354;51.296;16.924;2023-01-15T00:49:42;98479.22;;;7.05;77.95
49459;BME280;35354;51.296;16.924;2023-01-15T00:52:09;98476.53;;;7.07;77.77
49459;BME280;35354;51.296;16.924;2023-01-15T00:54:34;98485.66;;;7.14;77.82
49459;BME280;35354;51.296;16.924;2023-01-15T00:57:00;98480.72;;;7.09;77.95
49459;BME280;35354;51.296;16.924;2023-01-15T00:59:25;98491.59;;;7.16;78.39
49459;BME280;35354;51.296;16.924;2023-01-15T01:01:51;98475.63;;;7.08;78.34
49459;BME280;35354;51.296;16.924;2023-01-15T01:04:16;98471.81;;;7.15;78.44
49459;BME280;35354;51.296;16.924;2023-01-15T01:06:42;98465.78;;;7.14;78.51
49459;BME280;35354;51.296;16.924;2023-01-15T01:09:12;98458.84;;;7.15;78.83
49459;BME280;35354;51.296;16.924;2023-01-15T01:11:37;98467.91;;;7.23;78.81
49459;BME280;35354;51.296;16.924;2023-01-15T01:14:03;98476.59;;;7.22;78.97
49459;BME280;35354;51.296;16.924;2023-01-15T01:18:56;98465.47;;;7.20;79.46
49459;BME280;35354;51.296;16.924;2023-01-15T01:21:22;98472.00;;;7.28;79.34
49459;BME280;35354;51.296;16.924;2023-01-15T01:23:48;98462.56;;;7.27;79.56
49459;BME280;35354;51.296;16.924;2023-01-15T01:26:13;98470.09;;;7.31;79.86
49459;BME280;35354;51.296;16.924;2023-01-15T01:28:39;98447.94;;;7.25;79.98
49459;BME280;35354;51.296;16.924;2023-01-15T01:31:06;98437.59;;;7.25;80.27
49459;BME280;35354;51.296;16.924;2023-01-15T01:33:32;98435.50;;;7.32;80.35
49459;BME280;35354;51.296;16.924;2023-01-15T01:35:57;98447.47;;;7.35;80.57
49459;BME280;35354;51.296;16.924;2023-01-15T01:38:23;98444.78;;;7.36;80.93
49459;BME280;35354;51.296;16.924;2023-01-15T01:40:48;98444.78;;;7.36;81.15
49459;BME280;35354;51.296;16.924;2023-01-15T01:43:25;98436.28;;;7.34;81.27
49459;BME280;35354;51.296;16.924;2023-01-15T01:45:51;98437.00;;;7.36;81.76
49459;BME280;35354;51.296;16.924;2023-01-15T01:48:19;98438.19;;;7.31;82.00
49459;BME280;35354;51.296;16.924;2023-01-15T01:50:46;98428.75;;;7.30;82.34
49459;BME280;35354;51.296;16.924;2023-01-15T01:53:19;98414.34;;;7.24;83.16
49459;BME280;35354;51.296;16.924;2023-01-15T01:55:46;98416.19;;;7.22;83.58
49459;BME280;35354;51.296;16.924;2023-01-15T01:58:13;98413.09;;;7.15;84.10
49459;BME280;35354;51.296;16.924;2023-01-15T02:00:44;98416.44;;;7.17;84.50
49459;BME280;35354;51.296;16.924;2023-01-15T02:03:10;98400.38;;;7.11;85.19
49459;BME280;35354;51.296;16.924;2023-01-15T02:05:39;98404.81;;;7.09;85.53
49459;BME280;35354;51.296;16.924;2023-01-15T02:08:06;98418.50;;;7.11;85.66
49459;BME280;35354;51.296;16.924;2023-01-15T02:10:32;98418.50;;;7.11;86.27
49459;BME280;35354;51.296;16.924;2023-01-15T02:13:13;98413.41;;;7.09;86.15
49459;BME280;35354;51.296;16.924;2023-01-15T02:15:54;98409.06;;;7.10;86.40
49459;BME280;35354;51.296;16.924;2023-01-15T02:29:28;98362.97;;;7.00;88.32
49459;BME280;35354;51.296;16.924;2023-01-15T02:31:58;98361.03;;;7.04;88.84
49459;BME280;35354;51.296;16.924;2023-01-15T02:34:28;98370.53;;;7.04;88.87
49459;BME280;35354;51.296;16.924;2023-01-15T02:37:03;98366.22;;;7.04;89.16
49459;BME280;35354;51.296;16.924;2023-01-15T02:39:31;98367.13;;;7.03;89.14
49459;BME280;35354;51.296;16.924;2023-01-15T02:42:01;98357.69;;;7.02;89.11
49459;BME280;35354;51.296;16.924;2023-01-15T02:44:29;98379.75;;;7.09;89.47
49459;BME280;35354;51.296;16.924;2023-01-15T02:46:56;98378.00;;;7.10;90.05
49459;BME280;35354;51.296;16.924;2023-01-15T02:49:23;98355.94;;;7.03;90.00
49459;BME280;35354;51.296;16.924;2023-01-15T02:52:05;98355.78;;;7.06;90.23
49459;BME280;35354;51.296;16.924;2023-01-15T02:54:42;98343.75;;;7.05;90.90
49459;BME280;35354;51.296;16.924;2023-01-15T02:57:10;98331.94;;;6.99;90.82
49459;BME280;35354;51.296;16.924;2023-01-15T02:59:40;98335.22;;;7.03;91.08
49459;BME280;35354;51.296;16.924;2023-01-15T03:02:09;98348.44;;;7.14;91.24
49459;BME280;35354;51.296;16.924;2023-01-15T03:07:27;98336.16;;;7.17;92.10
49459;BME280;35354;51.296;16.924;2023-01-15T03:09:55;98328.66;;;7.13;92.27
49459;BME280;35354;51.296;16.924;2023-01-15T03:15:19;98320.63;;;7.17;93.24
49459;BME280;35354;51.296;16.924;2023-01-15T03:18:10;98323.66;;;7.25;93.58
49459;BME280;35354;51.296;16.924;2023-01-15T03:20:40;98315.88;;;7.25;93.84
49459;BME280;35354;51.296;16.924;2023-01-15T03:23:11;98309.88;;;7.25;94.35
49459;BME280;35354;51.296;16.924;2023-01-15T03:25:47;98282.22;;;7.25;94.86
49459;BME280;35354;51.296;16.924;2023-01-15T03:28:14;98300.41;;;7.40;95.28
49459;BME280;35354;51.296;16.924;2023-01-15T03:30:41;98302.16;;;7.39;95.88
49459;BME280;35354;51.296;16.924;2023-01-15T03:33:08;98306.16;;;7.45;95.90
49459;BME280;35354;51.296;16.924;2023-01-15T03:38:15;98299.16;;;7.47;96.43
49459;BME280;35354;51.296;16.924;2023-01-15T03:40:54;98295.63;;;7.48;96.65
49459;BME280;35354;51.296;16.924;2023-01-15T03:43:31;98289.25;;;7.54;97.46
49459;BME280;35354;51.296;16.924;2023-01-15T03:46:13;98276.50;;;7.50;98.15
49459;BME280;35354;51.296;16.924;2023-01-15T03:51:34;98285.69;;;7.56;98.31
49459;BME280;35354;51.296;16.924;2023-01-15T03:54:06;98283.91;;;7.57;98.48
49459;BME280;35354;51.296;16.924;2023-01-15T03:56:41;98281.06;;;7.61;98.96
49459;BME280;35354;51.296;16.924;2023-01-15T03:59:28;98276.72;;;7.62;98.87
49459;BME280;35354;51.296;16.924;2023-01-15T04:01:57;98266.63;;;7.57;99.17
49459;BME280;35354;51.296;16.924;2023-01-15T04:04:25;98283.19;;;7.55;99.27
49459;BME280;35354;51.296;16.924;2023-01-15T04:06:51;98293.28;;;7.59;99.09
49459;BME280;35354;51.296;16.924;2023-01-15T04:09:18;98280.66;;;7.53;99.43
49459;BME280;35354;51.296;16.924;2023-01-15T04:11:43;98282.25;;;7.56;99.68
49459;BME280;35354;51.296;16.924;2023-01-15T04:14:12;98279.84;;;7.53;100.00
49459;BME280;35354;51.296;16.924;2023-01-15T04:16:37;98273.09;;;7.50;100.00
49459;BME280;35354;51.296;16.924;2023-01-15T04:19:03;98256.38;;;7.40;100.00
49459;BME280;35354;51.296;16.924;2023-01-15T04:21:28;98257.28;;;7.39;100.00
49459;BME280;35354;51.296;16.924;2023-01-15T04:23:54;98262.31;;;7.42;100.00
49459;BME280;35354;51.296;16.924;2023-01-15T04:26:20;98254.13;;;7.34;100.00
49459;BME280;35354;51.296;16.924;2023-01-15T04:28:45;98248.94;;;7.34;100.00
49459;BME280;35354;51.296;16.924;2023-01-15T04:31:10;98255.63;;;7.38;100.00
49459;BME280;35354;51.296;16.924;2023-01-15T04:33:36;98250.34;;;7.39;100.00
49459;BME280;35354;51.296;16.924;2023-01-15T04:36:03;98238.25;;;7.40;100.00
49459;BME280;35354;51.296;16.924;2023-01-15T04:38:29;98236.41;;;7.42;100.00
49459;BME280;35354;51.296;16.924;2023-01-15T04:40:54;98239.72;;;7.44;100.00
49459;BME280;35354;51.296;16.924;2023-01-15T04:43:38;98230.31;;;7.43;100.00
49459;BME280;35354;51.296;16.924;2023-01-15T04:46:23;98209.66;;;7.41;100.00
49459;BME280;35354;51.296;16.924;2023-01-15T04:48:49;98209.47;;;7.44;100.00
49459;BME280;35354;51.296;16.924;2023-01-15T04:51:14;98207.56;;;7.48;100.00
49459;BME280;35354;51.296;16.924;2023-01-15T04:53:39;98213.56;;;7.48;100.00
49459;BME280;35354;51.296;16.924;2023-01-15T04:56:05;98196.38;;;7.47;100.00
49459;BME280;35354;51.296;16.924;2023-01-15T04:58:32;98208.22;;;7.52;100.00
49459;BME280;35354;51.296;16.924;2023-01-15T05:00:58;98198.19;;;7.45;100.00
49459;BME280;35354;51.296;16.924;2023-01-15T05:03:25;98202.22;;;7.51;100.00
49459;BME280;35354;51.296;16.924;2023-01-15T05:05:51;98192.00;;;7.48;100.00
49459;BME280;35354;51.296;16.924;2023-01-15T05:08:16;98169.91;;;7.42;100.00
49459;BME280;35354;51.296;16.924;2023-01-15T05:10:41;98186.25;;;7.43;100.00
49459;BME280;35354;51.296;16.924;2023-01-15T05:13:07;98183.84;;;7.40;100.00
49459;BME280;35354;51.296;16.924;2023-01-15T05:15:32;98194.78;;;7.45;100.00
49459;BME280;35354;51.296;16.924;2023-01-15T05:17:58;98181.53;;;7.35;100.00
49459;BME280;35354;51.296;16.924;2023-01-15T05:20:23;98195.03;;;7.40;100.00
49459;BME280;35354;51.296;16.924;2023-01-15T05:22:48;98188.28;;;7.38;100.00
49459;BME280;35354;51.296;16.924;2023-01-15T05:25:14;98191.03;;;7.35;100.00
49459;BME280;35354;51.296;16.924;2023-01-15T05:27:39;98187.53;;;7.36;100.00
49459;BME280;35354;51.296;16.924;2023-01-15T05:30:05;98179.19;;;7.31;100.00
49459;BME280;35354;51.296;16.924;2023-01-15T05:32:31;98186.78;;;7.34;100.00
49459;BME280;35354;51.296;16.924;2023-01-15T05:34:56;98183.59;;;7.29;100.00
49459;BME280;35354;51.296;16.924;2023-01-15T05:37:21;98182.03;;;7.26;100.00
49459;BME280;35354;51.296;16.924;2023-01-15T05:39:47;98177.88;;;7.23;100.00
49459;BME280;35354;51.296;16.924;2023-01-15T05:42:12;98181.22;;;7.25;100.00
49459;BME280;35354;51.296;16.924;2023-01-15T05:44:37;98188.06;;;7.27;100.00
49459;BME280;35354;51.296;16.924;2023-01-15T05:47:03;98186.03;;;7.32;100.00
49459;BME280;35354;51.296;16.924;2023-01-15T05:49:32;98188.63;;;7.32;100.00
49459;BME280;35354;51.296;16.924;2023-01-15T05:51:59;98179.63;;;7.23;100.00
49459;BME280;35354;51.296;16.924;2023-01-15T05:54:30;98188.16;;;7.25;100.00
49459;BME280;35354;51.296;16.924;2023-01-15T05:56:56;98193.13;;;7.28;100.00
49459;BME280;35354;51.296;16.924;2023-01-15T05:59:24;98184.69;;;7.24;100.00
49459;BME280;35354;51.296;16.924;2023-01-15T06:01:51;98190.47;;;7.30;100.00
49459;BME280;35354;51.296;16.924;2023-01-15T06:04:16;98194.91;;;7.28;100.00
49459;BME280;35354;51.296;16.924;2023-01-15T06:06:45;98197.41;;;7.29;100.00
49459;BME280;35354;51.296;16.924;2023-01-15T06:09:11;98195.91;;;7.25;100.00
49459;BME280;35354;51.296;16.924;2023-01-15T06:11:36;98190.75;;;7.25;100.00
49459;BME280;35354;51.296;16.924;2023-01-15T06:14:02;98202.00;;;7.24;100.00
49459;BME280;35354;51.296;16.924;2023-01-15T06:16:27;98186.81;;;7.18;100.00
49459;BME280;35354;51.296;16.924;2023-01-15T06:18:52;98184.91;;;7.21;100.00
49459;BME280;35354;51.296;16.924;2023-01-15T06:21:18;98185.88;;;7.19;100.00
49459;BME280;35354;51.296;16.924;2023-01-15T06:23:44;98180.88;;;7.16;100.00
49459;BME280;35354;51.296;16.924;2023-01-15T06:26:15;98173.88;;;7.18;100.00
49459;BME280;35354;51.296;16.924;2023-01-15T06:28:41;98151.34;;;7.04;100.00
49459;BME280;35354;51.296;16.924;2023-01-15T06:31:08;98187.66;;;7.18;100.00
49459;BME280;35354;51.296;16.924;2023-01-15T06:33:34;98169.69;;;7.15;100.00
49459;BME280;35354;51.296;16.924;2023-01-15T06:36:07;98170.25;;;7.20;100.00
49459;BME280;35354;51.296;16.924;2023-01-15T06:38:33;98155.25;;;7.11;100.00
49459;BME280;35354;51.296;16.924;2023-01-15T06:41:00;98170.19;;;7.22;100.00
49459;BME280;35354;51.296;16.924;2023-01-15T06:43:26;98176.03;;;7.25;100.00
49459;BME280;35354;51.296;16.924;2023-01-15T06:46:30;98171.69;;;7.26;100.00
49459;BME280;35354;51.296;16.924;2023-01-15T06:49:13;98166.50;;;7.26;100.00
49459;BME280;35354;51.296;16.924;2023-01-15T06:51:39;98173.84;;;7.34;100.00
49459;BME280;35354;51.296;16.924;2023-01-15T06:54:04;98177.06;;;7.37;100.00
49459;BME280;35354;51.296;16.924;2023-01-15T06:56:29;98153.03;;;7.35;100.00
49459;BME280;35354;51.296;16.924;2023-01-15T06:58:55;98172.56;;;7.41;100.00
49459;BME280;35354;51.296;16.924;2023-01-15T07:01:20;98162.94;;;7.43;100.00
49459;BME280;35354;51.296;16.924;2023-01-15T07:03:45;98162.78;;;7.46;100.00
49459;BME280;35354;51.296;16.924;2023-01-15T07:06:12;98165.00;;;7.52;100.00
49459;BME280;35354;51.296;16.924;2023-01-15T07:08:38;98149.63;;;7.49;100.00
49459;BME280;35354;51.296;16.924;2023-01-15T07:11:04;98162.81;;;7.60;100.00
49459;BME280;35354;51.296;16.924;2023-01-15T07:13:30;98144.78;;;7.59;100.00
49459;BME280;35354;51.296;16.924;2023-01-15T07:15:57;98155.53;;;7.67;100.00
49459;BME280;35354;51.296;16.924;2023-01-15T07:18:23;98158.75;;;7.70;100.00
49459;BME280;35354;51.296;16.924;2023-01-15T07:20:48;98136.63;;;7.65;100.00
49459;BME280;35354;51.296;16.924;2023-01-15T07:23:13;98160.16;;;7.76;100.00
49459;BME280;35354;51.296;16.924;2023-01-15T07:25:39;98155.63;;;7.80;100.00
49459;BME280;35354;51.296;16.924;2023-01-15T07:28:04;98148.97;;;7.75;100.00
49459;BME280;35354;51.296;16.924;2023-01-15T07:30:29;98166.72;;;7.82;100.00
49459;BME280;35354;51.296;16.924;2023-01-15T07:32:55;98149.59;;;7.79;100.00
49459;BME280;35354;51.296;16.924;2023-01-15T07:35:21;98149.25;;;7.85;100.00
49459;BME280;35354;51.296;16.924;2023-01-15T07:37:50;98148.41;;;7.85;100.00
49459;BME280;35354;51.296;16.924;2023-01-15T07:40:16;98138.50;;;7.91;100.00
49459;BME280;35354;51.296;16.924;2023-01-15T07:42:42;98146.09;;;7.94;100.00
49459;BME280;35354;51.296;16.924;2023-01-15T07:45:25;98143.50;;;7.94;100.00
49459;BME280;35354;51.296;16.924;2023-01-15T07:48:10;98150.66;;;8.05;100.00
49459;BME280;35354;51.296;16.924;2023-01-15T07:50:53;98130.09;;;8.02;100.00
49459;BME280;35354;51.296;16.924;2023-01-15T07:53:19;98142.66;;;8.08;100.00
49459;BME280;35354;51.296;16.924;2023-01-15T07:55:44;98144.06;;;8.14;100.00
49459;BME280;35354;51.296;16.924;2023-01-15T07:58:09;98144.16;;;8.12;100.00
49459;BME280;35354;51.296;16.924;2023-01-15T08:00:34;98148.88;;;8.20;100.00
49459;BME280;35354;51.296;16.924;2023-01-15T08:03:00;98149.53;;;8.23;100.00
49459;BME280;35354;51.296;16.924;2023-01-15T08:05:27;98136.84;;;8.19;100.00
49459;BME280;35354;51.296;16.924;2023-01-15T08:07:53;98134.50;;;8.29;100.00
49459;BME280;35354;51.296;16.924;2023-01-15T08:10:18;98121.53;;;8.29;100.00
49459;BME280;35354;51.296;16.924;2023-01-15T08:12:44;98124.78;;;8.32;100.00
49459;BME280;35354;51.296;16.924;2023-01-15T08:15:31;98128.84;;;8.36;100.00
49459;BME280;35354;51.296;16.924;2023-01-15T08:17:58;98144.91;;;8.43;100.00
49459;BME280;35354;51.296;16.924;2023-01-15T08:20:25;98135.38;;;8.43;100.00
49459;BME280;35354;51.296;16.924;2023-01-15T08:22:50;98135.72;;;8.37;100.00
49459;BME280;35354;51.296;16.924;2023-01-15T08:25:22;98138.97;;;8.41;99.77
49459;BME280;35354;51.296;16.924;2023-01-15T08:27:49;98140.16;;;8.49;100.00
49459;BME280;35354;51.296;16.924;2023-01-15T08:30:18;98147.00;;;8.50;100.00
49459;BME280;35354;51.296;16.924;2023-01-15T08:32:44;98143.88;;;8.45;100.00
49459;BME280;35354;51.296;16.924;2023-01-15T08:35:10;98132.78;;;8.43;100.00
49459;BME280;35354;51.296;16.924;2023-01-15T08:37:37;98134.44;;;8.44;100.00
49459;BME280;35354;51.296;16.924;2023-01-15T08:40:02;98122.00;;;8.35;100.00
49459;BME280;35354;51.296;16.924;2023-01-15T08:42:28;98118.88;;;8.30;100.00
49459;BME280;35354;51.296;16.924;2023-01-15T08:44:54;98131.31;;;8.39;100.00
49459;BME280;35354;51.296;16.924;2023-01-15T08:47:19;98141.69;;;8.39;100.00
49459;BME280;35354;51.296;16.924;2023-01-15T08:49:45;98137.31;;;8.40;100.00
49459;BME280;35354;51.296;16.924;2023-01-15T08:52:12;98129.03;;;8.33;100.00
49459;BME280;35354;51.296;16.924;2023-01-15T08:54:37;98138.97;;;8.41;99.44
49459;BME280;35354;51.296;16.924;2023-01-15T08:57:02;98135.72;;;8.37;99.55
49459;BME280;35354;51.296;16.924;2023-01-15T08:59:28;98132.03;;;8.41;99.40
49459;BME280;35354;51.296;16.924;2023-01-15T09:01:53;98137.03;;;8.44;99.54
49459;BME280;35354;51.296;16.924;2023-01-15T09:04:20;98137.97;;;8.43;98.91
49459;BME280;35354;51.296;16.924;2023-01-15T09:06:46;98132.78;;;8.43;98.89
49459;BME280;35354;51.296;16.924;2023-01-15T09:09:12;98113.47;;;8.33;98.48
49459;BME280;35354;51.296;16.924;2023-01-15T09:11:38;98131.38;;;8.38;98.36
49459;BME280;35354;51.296;16.924;2023-01-15T09:14:08;98124.88;;;8.31;98.42
49459;BME280;35354;51.296;16.924;2023-01-15T09:16:35;98123.03;;;8.33;98.36
49459;BME280;35354;51.296;16.924;2023-01-15T09:19:00;98141.19;;;8.33;98.19
49459;BME280;35354;51.296;16.924;2023-01-15T09:21:26;98135.88;;;8.34;98.52
49459;BME280;35354;51.296;16.924;2023-01-15T09:23:51;98130.81;;;8.33;98.21
49459;BME280;35354;51.296;16.924;2023-01-15T09:26:36;98136.28;;;8.42;97.98
49459;BME280;35354;51.296;16.924;2023-01-15T09:29:04;98132.97;;;8.40;97.83
49459;BME280;35354;51.296;16.924;2023-01-15T09:31:29;98131.84;;;8.44;98.07
49459;BME280;35354;51.296;16.924;2023-01-15T09:33:56;98129.44;;;8.41;97.28
49459;BME280;35354;51.296;16.924;2023-01-15T09:36:27;98133.69;;;8.42;97.15
49459;BME280;35354;51.296;16.924;2023-01-15T09:38:54;98122.41;;;8.43;97.13
49459;BME280;35354;51.296;16.924;2023-01-15T09:41:20;98126.94;;;8.40;96.43
49459;BME280;35354;51.296;16.924;2023-01-15T09:47:02;98137.97;;;8.43;96.16
49459;BME280;35354;51.296;16.924;2023-01-15T09:49:39;98135.56;;;8.40;95.71
49459;BME280;35354;51.296;16.924;2023-01-15T09:52:19;98126.19;;;8.38;95.69
49459;BME280;35354;51.296;16.924;2023-01-15T09:55:09;98118.59;;;8.35;95.68
49459;BME280;35354;51.296;16.924;2023-01-15T09:57:37;98126.94;;;8.40;95.90
49459;BME280;35354;51.296;16.924;2023-01-15T10:00:05;98126.13;;;8.39;95.71
49459;BME280;35354;51.296;16.924;2023-01-15T10:02:45;98131.09;;;8.42;95.87
49459;BME280;35354;51.296;16.924;2023-01-15T10:05:20;98113.88;;;8.41;95.32
49459;BME280;35354;51.296;16.924;2023-01-15T10:08:03;98111.28;;;8.41;95.37
49459;BME280;35354;51.296;16.924;2023-01-15T10:10:41;98098.00;;;8.32;94.97
49459;BME280;35354;51.296;16.924;2023-01-15T10:16:24;98102.75;;;8.25;95.34
49459;BME280;35354;51.296;16.924;2023-01-15T10:18:51;98114.50;;;8.31;95.38
49459;BME280;35354;51.296;16.924;2023-01-15T10:24:19;98098.31;;;8.27;95.07
49459;BME280;35354;51.296;16.924;2023-01-15T10:26:53;98100.72;;;8.30;95.10
49459;BME280;35354;51.296;16.924;2023-01-15T10:29:32;98106.81;;;8.29;95.05
49459;BME280;35354;51.296;16.924;2023-01-15T10:43:36;98075.31;;;8.21;95.45
49459;BME280;35354;51.296;16.924;2023-01-15T10:46:13;98078.56;;;8.24;95.02
49459;BME280;35354;51.296;16.924;2023-01-15T10:48:53;98070.72;;;8.12;94.83
49459;BME280;35354;51.296;16.924;2023-01-15T10:51:27;98081.44;;;8.20;94.83
49459;BME280;35354;51.296;16.924;2023-01-15T10:54:00;98085.63;;;8.22;95.15
49459;BME280;35354;51.296;16.924;2023-01-15T11:02:02;98068.38;;;8.21;94.93
49459;BME280;35354;51.296;16.924;2023-01-15T11:04:31;98078.50;;;8.26;94.82
49459;BME280;35354;51.296;16.924;2023-01-15T11:06:57;98081.69;;;8.30;94.70
49459;BME280;35354;51.296;16.924;2023-01-15T11:09:25;98072.66;;;8.22;94.57
49459;BME280;35354;51.296;16.924;2023-01-15T11:12:11;98094.47;;;8.33;94.87
49459;BME280;35354;51.296;16.924;2023-01-15T11:14:45;98099.78;;;8.31;94.55
49459;BME280;35354;51.296;16.924;2023-01-15T11:17:37;98094.88;;;8.27;94.59
49459;BME280;35354;51.296;16.924;2023-01-15T11:20:26;98109.94;;;8.34;95.15
49459;BME280;35354;51.296;16.924;2023-01-15T11:22:54;98101.63;;;8.29;95.46
49459;BME280;35354;51.296;16.924;2023-01-15T11:25:28;98105.78;;;8.32;95.27
49459;BME280;35354;51.296;16.924;2023-01-15T11:27:55;98120.16;;;8.37;95.33
49459;BME280;35354;51.296;16.924;2023-01-15T11:30:33;98131.44;;;8.36;95.50
49459;BME280;35354;51.296;16.924;2023-01-15T11:33:01;98134.91;;;8.37;95.68
49459;BME280;35354;51.296;16.924;2023-01-15T11:35:31;98139.22;;;8.36;95.65
49459;BME280;35354;51.296;16.924;2023-01-15T11:38:15;98147.00;;;8.36;95.88
49459;BME280;35354;51.296;16.924;2023-01-15T11:40:51;98155.81;;;8.34;96.05
49459;BME280;35354;51.296;16.924;2023-01-15T11:43:24;98158.16;;;8.38;96.25
49459;BME280;35354;51.296;16.924;2023-01-15T11:46:26;98160.09;;;8.35;96.30
49459;BME280;35354;51.296;16.924;2023-01-15T11:49:15;98163.81;;;8.31;96.45
49459;BME280;35354;51.296;16.924;2023-01-15T11:52:00;98175.94;;;8.30;96.81
49459;BME280;35354;51.296;16.924;2023-01-15T11:54:29;98183.78;;;8.29;97.25
49459;BME280;35354;51.296;16.924;2023-01-15T11:57:00;98182.13;;;8.28;97.53
49459;BME280;35354;51.296;16.924;2023-01-15T11:59:26;98181.31;;;8.27;98.07
49459;BME280;35354;51.296;16.924;2023-01-15T12:01:54;98182.59;;;8.20;98.32
49459;BME280;35354;51.296;16.924;2023-01-15T12:04:34;98175.19;;;8.14;98.89
49459;BME280;35354;51.296;16.924;2023-01-15T12:07:01;98173.13;;;8.05;99.33
49459;BME280;35354;51.296;16.924;2023-01-15T12:14:47;98194.97;;;8.00;100.00
49459;BME280;35354;51.296;16.924;2023-01-15T12:20:19;98200.72;;;7.91;100.00
49459;BME280;35354;51.296;16.924;2023-01-15T12:22:59;98208.88;;;7.85;100.00
49459;BME280;35354;51.296;16.924;2023-01-15T12:28:14;98210.69;;;7.69;100.00
49459;BME280;35354;51.296;16.924;2023-01-15T12:31:09;98229.81;;;7.66;100.00
49459;BME280;35354;51.296;16.924;2023-01-15T12:33:45;98237.03;;;7.61;100.00
49459;BME280;35354;51.296;16.924;2023-01-15T12:36:35;98240.81;;;7.56;100.00
49459;BME280;35354;51.296;16.924;2023-01-15T12:39:18;98239.56;;;7.47;100.00
49459;BME280;35354;51.296;16.924;2023-01-15T12:41:51;98239.72;;;7.44;100.00
49459;BME280;35354;51.296;16.924;2023-01-15T12:44:45;98255.44;;;7.41;100.00
49459;BME280;35354;51.296;16.924;2023-01-15T12:47:36;98261.31;;;7.29;100.00
49459;BME280;35354;51.296;16.924;2023-01-15T12:53:39;98279.28;;;7.16;100.00
49459;BME280;35354;51.296;16.924;2023-01-15T13:01:50;98283.59;;;6.84;100.00
49459;BME280;35354;51.296;16.924;2023-01-15T13:04:23;98284.00;;;6.76;100.00
49459;BME280;35354;51.296;16.924;2023-01-15T13:06:56;98288.34;;;6.75;100.00
49459;BME280;35354;51.296;16.924;2023-01-15T13:12:13;98290.34;;;6.70;100.00
49459;BME280;35354;51.296;16.924;2023-01-15T13:14:39;98293.00;;;6.69;100.00
49459;BME280;35354;51.296;16.924;2023-01-15T13:17:14;98305.00;;;6.70;100.00
49459;BME280;35354;51.296;16.924;2023-01-15T13:20:01;98305.25;;;6.65;100.00
49459;BME280;35354;51.296;16.924;2023-01-15T13:22:31;98291.00;;;6.58;100.00
49459;BME280;35354;51.296;16.924;2023-01-15T13:25:19;98308.09;;;6.61;100.00
49459;BME280;35354;51.296;16.924;2023-01-15T13:33:28;98302.91;;;6.45;100.00
49459;BME280;35354;51.296;16.924;2023-01-15T13:36:04;98311.47;;;6.45;100.00
49459;BME280;35354;51.296;16.924;2023-01-15T13:38:40;98314.97;;;6.44;100.00
49459;BME280;35354;51.296;16.924;2023-01-15T13:41:06;98308.97;;;6.44;100.00
49459;BME280;35354;51.296;16.924;2023-01-15T13:43:37;98305.78;;;6.39;100.00
49459;BME280;35354;51.296;16.924;2023-01-15T13:46:08;98303.19;;;6.39;100.00
49459;BME280;35354;51.296;16.924;2023-01-15T13:48:43;98320.00;;;6.30;100.00
49459;BME280;35354;51.296;16.924;2023-01-15T13:51:28;98332.03;;;6.31;100.00
49459;BME280;35354;51.296;16.924;2023-01-15T13:53:55;98333.09;;;6.27;100.00
49459;BME280;35354;51.296;16.924;2023-01-15T13:56:32;98338.56;;;6.21;100.00
49459;BME280;35354;51.296;16.924;2023-01-15T13:59:05;98353.06;;;6.23;100.00
49459;BME280;35354;51.296;16.924;2023-01-15T14:06:54;98366.19;;;6.20;100.00
49459;BME280;35354;51.296;16.924;2023-01-15T14:12:16;98371.81;;;6.11;100.00
49459;BME280;35354;51.296;16.924;2023-01-15T14:28:26;98378.09;;;6.06;100.00
49459;BME280;35354;51.296;16.924;2023-01-15T14:34:24;98398.25;;;5.99;100.00
49459;BME280;35354;51.296;16.924;2023-01-15T14:37:28;98410.47;;;5.95;100.00
49459;BME280;35354;51.296;16.924;2023-01-15T14:39:56;98396.13;;;5.88;100.00
49459;BME280;35354;51.296;16.924;2023-01-15T14:42:28;98393.63;;;5.87;100.00
49459;BME280;35354;51.296;16.924;2023-01-15T14:50:40;98387.34;;;5.92;100.00
49459;BME280;35354;51.296;16.924;2023-01-15T14:55:42;98370.50;;;5.84;100.00
49459;BME280;35354;51.296;16.924;2023-01-15T14:58:30;98349.75;;;5.85;100.00
49459;BME280;35354;51.296;16.924;2023-01-15T15:00:59;98343.91;;;5.82;100.00
49459;BME280;35354;51.296;16.924;2023-01-15T15:03:33;98330.78;;;5.86;100.00